Hemet, CA

3:24 PM PDT on April 25, 2015 (GMT -0700)
Hemet-Valleywide | | Change Station
CLOSE
Current Station
Personal Weather Station
Location: Hemet, CA
Elevation: 1555 ft
Nearby Weather Stations

Elev 1555 ft 33.76 °N, 116.98 °W | Updated 5 seconds ago

Overcast
Overcast
60.1 °F
Feels Like 60.1 °F
N
2.7
Wind Variable Wind from SSW
Gusts 10.0 mph

Today
High -- | Low -- °F
--% Chance of Precip.
Yesterday
High -- | Low -- °F
Precip. -- in
6:05 AM 7:26 PM
Waxing Crescent, 49% visible
Pressure 29.93 in
Visibility 10.0 miles
Clouds Overcast 3200 ft
Dew Point 45 °F
Humidity 57%
Rainfall 0.00 in
Snow Depth Not available.
UV 2 out of 12
Pollen 8.30 out of 12
Air Quality Not available.
Flu Activity Sporadic
METAR KF70 252215Z AUTO 25008KT 10SM OVC032 15/08 A2993 RMK AO1

More Conditions Fewer Conditions

Pressure 29.93 in
Visibility 10.0 miles
Clouds Overcast 3200 ft
Dew Point 45 °F
Humidity 57%
Rainfall 0.00 in
Snow Depth Not available.
UV 2 out of 12
Pollen 8.30 out of 12
Air Quality Not available.
Flu Activity Sporadic
METAR KF70 252215Z AUTO 25008KT 10SM OVC032 15/08 A2993 RMK AO1

More Conditions Fewer Conditions

10-Day Weather Forecast

Almanac

Astronomy

Apr. 25, 2015 Rise Set
Actual Time
Civil Twilight
Nautical Twilight
Astronomical Twilight
Moon
Length of Visible Light
Length of Day
Tomorrow will be .
, % of the Moon is Illuminated

Today's Extremes

State Highs State Lows

Community

WunderPhotos

Upload Photos

1,816,833 photos uploaded!

WunderBlogs® & News

Nearby

Air Quality

  Air Quality AQ Index Pollutant
Not available.

Snow Depth

Station Depth Elevation

Earthquake Activity

City Distance Mag. Time & Date
Minimum magnitude displayed is 2.5.

Coastal Water Temperatures

Place Temperature

Stations

Nearby Weather Stations

Station Location Temp. Windchill Dew Point Humidity Wind Precip. Elev Updated Type